sensor_id;sensor_type;location;lat;lon;timestamp;pressure;altitude;pressure_sealevel;temperature;humidity
62402;BME280;48440;51.224;22.506;2024-02-26T00:01:07;98413.69;;;10.14;78.63
62402;BME280;48440;51.224;22.506;2024-02-26T00:03:33;98421.84;;;10.09;78.46
62402;BME280;48440;51.224;22.506;2024-02-26T00:06:02;98421.03;;;10.08;78.73
62402;BME280;48440;51.224;22.506;2024-02-26T00:08:28;98421.31;;;10.07;78.92
62402;BME280;48440;51.224;22.506;2024-02-26T00:10:53;98422.13;;;10.07;79.60
62402;BME280;48440;51.224;22.506;2024-02-26T00:13:19;98415.34;;;10.05;79.28
62402;BME280;48440;51.224;22.506;2024-02-26T00:15:45;98414.25;;;9.96;79.75
62402;BME280;48440;51.224;22.506;2024-02-26T00:18:11;98416.16;;;9.95;79.89
62402;BME280;48440;51.224;22.506;2024-02-26T00:20:37;98415.06;;;9.96;80.13
62402;BME280;48440;51.224;22.506;2024-02-26T00:23:02;98415.59;;;10.03;79.50
62402;BME280;48440;51.224;22.506;2024-02-26T00:25:28;98412.34;;;10.01;80.01
62402;BME280;48440;51.224;22.506;2024-02-26T00:27:53;98413.16;;;10.02;80.38
62402;BME280;48440;51.224;22.506;2024-02-26T00:30:18;98418.31;;;10.03;79.84
62402;BME280;48440;51.224;22.506;2024-02-26T00:32:44;98411.00;;;9.99;80.23
62402;BME280;48440;51.224;22.506;2024-02-26T00:35:09;98407.19;;;9.95;81.10
62402;BME280;48440;51.224;22.506;2024-02-26T00:37:35;98408.81;;;9.96;81.33
62402;BME280;48440;51.224;22.506;2024-02-26T00:40:00;98399.59;;;9.92;81.73
62402;BME280;48440;51.224;22.506;2024-02-26T00:42:26;98395.53;;;9.99;81.63
62402;BME280;48440;51.224;22.506;2024-02-26T00:44:51;98396.63;;;9.93;82.64
62402;BME280;48440;51.224;22.506;2024-02-26T00:47:17;98401.25;;;9.93;82.69
62402;BME280;48440;51.224;22.506;2024-02-26T00:49:42;98396.66;;;9.83;83.63
62402;BME280;48440;51.224;22.506;2024-02-26T00:52:08;98389.34;;;9.78;84.39
62402;BME280;48440;51.224;22.506;2024-02-26T00:54:33;98400.72;;;9.75;85.60
62402;BME280;48440;51.224;22.506;2024-02-26T00:56:59;98399.06;;;9.69;85.31
62402;BME280;48440;51.224;22.506;2024-02-26T00:59:24;98396.66;;;9.78;85.20
62402;BME280;48440;51.224;22.506;2024-02-26T01:01:50;98391.75;;;9.75;85.35
62402;BME280;48440;51.224;22.506;2024-02-26T01:04:15;98377.94;;;9.71;85.46
62402;BME280;48440;51.224;22.506;2024-02-26T01:06:41;98379.56;;;9.72;85.40
62402;BME280;48440;51.224;22.506;2024-02-26T01:09:06;98369.28;;;9.69;85.89
62402;BME280;48440;51.224;22.506;2024-02-26T01:11:32;98373.88;;;9.69;86.26
62402;BME280;48440;51.224;22.506;2024-02-26T01:13:57;98378.47;;;9.63;86.29
62402;BME280;48440;51.224;22.506;2024-02-26T01:16:23;98373.06;;;9.63;86.44
62402;BME280;48440;51.224;22.506;2024-02-26T01:18:49;98375.78;;;9.68;86.46
62402;BME280;48440;51.224;22.506;2024-02-26T01:21:14;98376.88;;;9.72;86.24
62402;BME280;48440;51.224;22.506;2024-02-26T01:23:40;98384.97;;;9.67;86.37
62402;BME280;48440;51.224;22.506;2024-02-26T01:26:05;98378.50;;;9.73;86.31
62402;BME280;48440;51.224;22.506;2024-02-26T01:28:31;98372.81;;;9.80;85.90
62402;BME280;48440;51.224;22.506;2024-02-26T01:30:57;98381.47;;;9.82;85.98
62402;BME280;48440;51.224;22.506;2024-02-26T01:33:25;98383.91;;;9.83;85.77
62402;BME280;48440;51.224;22.506;2024-02-26T01:35:51;98382.25;;;9.87;85.29
62402;BME280;48440;51.224;22.506;2024-02-26T01:38:16;98379.56;;;9.87;85.41
62402;BME280;48440;51.224;22.506;2024-02-26T01:40:42;98376.31;;;9.91;85.21
62402;BME280;48440;51.224;22.506;2024-02-26T01:43:07;98381.72;;;9.91;84.80
62402;BME280;48440;51.224;22.506;2024-02-26T01:45:33;98388.81;;;9.86;85.42
62402;BME280;48440;51.224;22.506;2024-02-26T01:47:58;98391.78;;;9.85;85.18
62402;BME280;48440;51.224;22.506;2024-02-26T01:50:24;98387.72;;;9.82;85.26
62402;BME280;48440;51.224;22.506;2024-02-26T01:52:51;98388.78;;;9.81;85.76
62402;BME280;48440;51.224;22.506;2024-02-26T01:55:19;98402.34;;;9.81;85.87
62402;BME280;48440;51.224;22.506;2024-02-26T01:57:48;98399.63;;;9.86;85.38
62402;BME280;48440;51.224;22.506;2024-02-26T02:00:14;98399.06;;;9.90;85.20
62402;BME280;48440;51.224;22.506;2024-02-26T02:02:40;98407.47;;;9.88;85.38
62402;BME280;48440;51.224;22.506;2024-02-26T02:05:08;98399.63;;;9.86;85.39
62402;BME280;48440;51.224;22.506;2024-02-26T02:07:35;98400.44;;;9.87;85.63
62402;BME280;48440;51.224;22.506;2024-02-26T02:10:01;98395.81;;;9.87;85.32
62402;BME280;48440;51.224;22.506;2024-02-26T02:12:27;98403.44;;;9.85;85.76
62402;BME280;48440;51.224;22.506;2024-02-26T02:14:52;98402.88;;;9.78;86.41
62402;BME280;48440;51.224;22.506;2024-02-26T02:17:19;98396.09;;;9.76;86.63
62402;BME280;48440;51.224;22.506;2024-02-26T02:19:44;98399.63;;;9.76;86.36
62402;BME280;48440;51.224;22.506;2024-02-26T02:22:10;98392.59;;;9.75;86.42
62402;BME280;48440;51.224;22.506;2024-02-26T02:24:35;98390.94;;;9.69;86.83
62402;BME280;48440;51.224;22.506;2024-02-26T02:27:01;98394.75;;;9.53;88.75
62402;BME280;48440;51.224;22.506;2024-02-26T02:29:27;98394.22;;;9.56;89.30
62402;BME280;48440;51.224;22.506;2024-02-26T02:31:53;98399.91;;;9.55;89.73
62402;BME280;48440;51.224;22.506;2024-02-26T02:34:20;98389.59;;;9.51;89.74
62402;BME280;48440;51.224;22.506;2024-02-26T02:36:53;98388.22;;;9.44;89.47
62402;BME280;48440;51.224;22.506;2024-02-26T02:39:19;98384.69;;;9.38;90.58
62402;BME280;48440;51.224;22.506;2024-02-26T02:41:44;98390.66;;;9.35;91.48
62402;BME280;48440;51.224;22.506;2024-02-26T02:44:10;98396.09;;;9.35;90.81
62402;BME280;48440;51.224;22.506;2024-02-26T02:46:35;98396.34;;;9.39;90.85
62402;BME280;48440;51.224;22.506;2024-02-26T02:49:01;98389.56;;;9.36;91.41
62402;BME280;48440;51.224;22.506;2024-02-26T02:51:27;98394.47;;;9.34;91.90
62402;BME280;48440;51.224;22.506;2024-02-26T02:53:52;98397.97;;;9.35;92.13
62402;BME280;48440;51.224;22.506;2024-02-26T02:56:18;98402.03;;;9.42;91.57
62402;BME280;48440;51.224;22.506;2024-02-26T02:58:44;98400.13;;;9.43;91.79
62402;BME280;48440;51.224;22.506;2024-02-26T03:01:09;98389.84;;;9.40;91.51
62402;BME280;48440;51.224;22.506;2024-02-26T03:03:35;98399.31;;;9.37;92.28
62402;BME280;48440;51.224;22.506;2024-02-26T03:06:02;98404.19;;;9.30;92.93
62402;BME280;48440;51.224;22.506;2024-02-26T03:08:28;98401.22;;;9.32;92.53
62402;BME280;48440;51.224;22.506;2024-02-26T03:10:54;98412.06;;;9.32;92.51
62402;BME280;48440;51.224;22.506;2024-02-26T03:13:20;98406.91;;;9.35;92.90
62402;BME280;48440;51.224;22.506;2024-02-26T03:15:45;98404.75;;;9.32;92.67
62402;BME280;48440;51.224;22.506;2024-02-26T03:18:11;98412.31;;;9.30;93.59
62402;BME280;48440;51.224;22.506;2024-02-26T03:20:36;98418.81;;;9.29;93.55
62402;BME280;48440;51.224;22.506;2024-02-26T03:23:02;98420.69;;;9.24;94.21
62402;BME280;48440;51.224;22.506;2024-02-26T03:25:28;98419.88;;;9.23;94.03
62402;BME280;48440;51.224;22.506;2024-02-26T03:27:53;98425.28;;;9.23;94.65
62402;BME280;48440;51.224;22.506;2024-02-26T03:30:19;98419.59;;;9.19;94.66
62402;BME280;48440;51.224;22.506;2024-02-26T03:32:44;98422.03;;;9.21;94.44
62402;BME280;48440;51.224;22.506;2024-02-26T03:35:10;98413.63;;;9.23;94.90
62402;BME280;48440;51.224;22.506;2024-02-26T03:37:36;98424.75;;;9.21;94.42
62402;BME280;48440;51.224;22.506;2024-02-26T03:40:01;98410.38;;;9.21;94.92
62402;BME280;48440;51.224;22.506;2024-02-26T03:42:27;98413.34;;;9.14;95.66
62402;BME280;48440;51.224;22.506;2024-02-26T03:44:52;98411.16;;;9.11;96.01
62402;BME280;48440;51.224;22.506;2024-02-26T03:47:17;98406.03;;;9.04;96.86
62402;BME280;48440;51.224;22.506;2024-02-26T03:49:43;98404.69;;;9.07;96.62
62402;BME280;48440;51.224;22.506;2024-02-26T03:52:09;98409.28;;;9.11;96.59
62402;BME280;48440;51.224;22.506;2024-02-26T03:54:34;98404.94;;;9.10;96.88
62402;BME280;48440;51.224;22.506;2024-02-26T03:56:59;98410.09;;;9.12;97.22
62402;BME280;48440;51.224;22.506;2024-02-26T03:59:26;98405.75;;;9.11;96.73
62402;BME280;48440;51.224;22.506;2024-02-26T04:01:51;98401.97;;;9.12;96.61
62402;BME280;48440;51.224;22.506;2024-02-26T04:04:17;98407.38;;;9.12;97.28
62402;BME280;48440;51.224;22.506;2024-02-26T04:06:46;98406.56;;;9.06;97.09
62402;BME280;48440;51.224;22.506;2024-02-26T04:09:14;98408.72;;;9.04;97.31
62402;BME280;48440;51.224;22.506;2024-02-26T04:11:40;98406.81;;;9.10;97.54
62402;BME280;48440;51.224;22.506;2024-02-26T04:14:05;98420.66;;;9.08;97.29
62402;BME280;48440;51.224;22.506;2024-02-26T04:16:34;98428.25;;;9.16;97.16
62402;BME280;48440;51.224;22.506;2024-02-26T04:19:00;98424.75;;;9.21;96.85
62402;BME280;48440;51.224;22.506;2024-02-26T04:21:26;98428.78;;;9.18;96.30
62402;BME280;48440;51.224;22.506;2024-02-26T04:23:51;98432.31;;;9.24;96.26
62402;BME280;48440;51.224;22.506;2024-02-26T04:26:20;98428.00;;;9.28;96.43
62402;BME280;48440;51.224;22.506;2024-02-26T04:28:46;98428.00;;;9.28;96.40
62402;BME280;48440;51.224;22.506;2024-02-26T04:31:11;98420.41;;;9.20;95.88
62402;BME280;48440;51.224;22.506;2024-02-26T04:33:37;98421.22;;;9.21;96.87
62402;BME280;48440;51.224;22.506;2024-02-26T04:36:02;98424.97;;;9.14;97.03
62402;BME280;48440;51.224;22.506;2024-02-26T04:38:28;98411.44;;;9.14;96.65
62402;BME280;48440;51.224;22.506;2024-02-26T04:40:54;98414.19;;;9.19;96.79
62402;BME280;48440;51.224;22.506;2024-02-26T04:43:19;98408.50;;;9.21;96.77
62402;BME280;48440;51.224;22.506;2024-02-26T04:45:45;98406.88;;;9.25;96.58
62402;BME280;48440;51.224;22.506;2024-02-26T04:48:10;98399.84;;;9.29;96.30
62402;BME280;48440;51.224;22.506;2024-02-26T04:50:35;98403.38;;;9.30;95.72
62402;BME280;48440;51.224;22.506;2024-02-26T04:53:01;98406.91;;;9.30;95.49
62402;BME280;48440;51.224;22.506;2024-02-26T04:55:26;98397.16;;;9.29;95.33
62402;BME280;48440;51.224;22.506;2024-02-26T04:57:52;98402.56;;;9.29;95.45
62402;BME280;48440;51.224;22.506;2024-02-26T05:00:17;98412.31;;;9.25;95.19
62402;BME280;48440;51.224;22.506;2024-02-26T05:02:43;98415.81;;;9.26;95.18
62402;BME280;48440;51.224;22.506;2024-02-26T05:05:09;98415.56;;;9.27;94.92
62402;BME280;48440;51.224;22.506;2024-02-26T05:07:39;98423.94;;;9.26;95.19
62402;BME280;48440;51.224;22.506;2024-02-26T05:10:05;98429.91;;;9.28;95.26
62402;BME280;48440;51.224;22.506;2024-02-26T05:12:31;98425.31;;;9.28;95.08
62402;BME280;48440;51.224;22.506;2024-02-26T05:14:57;98418.00;;;9.34;95.07
62402;BME280;48440;51.224;22.506;2024-02-26T05:17:22;98422.34;;;9.30;94.54
62402;BME280;48440;51.224;22.506;2024-02-26T05:19:48;98428.00;;;9.28;94.71
62402;BME280;48440;51.224;22.506;2024-02-26T05:22:13;98443.13;;;9.19;95.11
62402;BME280;48440;51.224;22.506;2024-02-26T05:24:39;98436.91;;;9.18;95.03
62402;BME280;48440;51.224;22.506;2024-02-26T05:27:04;98430.41;;;9.19;95.40
62402;BME280;48440;51.224;22.506;2024-02-26T05:29:30;98426.34;;;9.17;94.91
62402;BME280;48440;51.224;22.506;2024-02-26T05:31:56;98432.03;;;9.15;94.74
62402;BME280;48440;51.224;22.506;2024-02-26T05:34:21;98433.91;;;9.15;94.81
62402;BME280;48440;51.224;22.506;2024-02-26T05:36:47;98436.06;;;9.13;94.48
62402;BME280;48440;51.224;22.506;2024-02-26T05:39:12;98439.31;;;9.10;94.72
62402;BME280;48440;51.224;22.506;2024-02-26T05:41:38;98440.41;;;9.09;95.35
62402;BME280;48440;51.224;22.506;2024-02-26T05:44:03;98444.72;;;9.10;95.70
62402;BME280;48440;51.224;22.506;2024-02-26T05:46:29;98446.09;;;9.07;94.90
62402;BME280;48440;51.224;22.506;2024-02-26T05:48:55;98437.16;;;9.07;95.17
62402;BME280;48440;51.224;22.506;2024-02-26T05:51:20;98439.84;;;9.12;95.48
62402;BME280;48440;51.224;22.506;2024-02-26T05:53:45;98453.94;;;9.14;95.56
62402;BME280;48440;51.224;22.506;2024-02-26T05:56:19;98445.84;;;9.19;95.40
62402;BME280;48440;51.224;22.506;2024-02-26T05:58:45;98438.53;;;9.19;95.03
62402;BME280;48440;51.224;22.506;2024-02-26T06:01:11;98443.94;;;9.19;95.11
62402;BME280;48440;51.224;22.506;2024-02-26T06:03:36;98444.47;;;9.16;95.22
62402;BME280;48440;51.224;22.506;2024-02-26T06:06:02;98448.00;;;9.17;94.88
62402;BME280;48440;51.224;22.506;2024-02-26T06:08:28;98455.53;;;9.10;95.03
62402;BME280;48440;51.224;22.506;2024-02-26T06:10:53;98464.78;;;9.09;95.38
62402;BME280;48440;51.224;22.506;2024-02-26T06:13:19;98464.78;;;9.09;95.56
62402;BME280;48440;51.224;22.506;2024-02-26T06:15:44;98461.25;;;9.08;95.36
62402;BME280;48440;51.224;22.506;2024-02-26T06:18:10;98470.94;;;8.99;96.04
62402;BME280;48440;51.224;22.506;2024-02-26T06:20:35;98466.09;;;9.01;96.27
62402;BME280;48440;51.224;22.506;2024-02-26T06:23:01;98466.91;;;9.02;96.05
62402;BME280;48440;51.224;22.506;2024-02-26T06:25:27;98468.81;;;9.06;95.79
62402;BME280;48440;51.224;22.506;2024-02-26T06:27:52;98471.78;;;9.05;96.36
62402;BME280;48440;51.224;22.506;2024-02-26T06:30:18;98464.72;;;8.99;95.84
62402;BME280;48440;51.224;22.506;2024-02-26T06:32:43;98470.94;;;8.99;96.18
62402;BME280;48440;51.224;22.506;2024-02-26T06:35:09;98469.88;;;9.00;95.87
62402;BME280;48440;51.224;22.506;2024-02-26T06:37:36;98465.28;;;9.01;96.03
62402;BME280;48440;51.224;22.506;2024-02-26T06:40:02;98475.53;;;8.99;96.08
62402;BME280;48440;51.224;22.506;2024-02-26T06:42:32;98467.47;;;9.04;96.21
62402;BME280;48440;51.224;22.506;2024-02-26T06:44:57;98463.41;;;9.11;95.97
62402;BME280;48440;51.224;22.506;2024-02-26T06:47:23;98468.56;;;9.08;95.24
62402;BME280;48440;51.224;22.506;2024-02-26T06:49:49;98479.38;;;9.13;95.12
62402;BME280;48440;51.224;22.506;2024-02-26T06:52:14;98472.59;;;9.10;95.33
62402;BME280;48440;51.224;22.506;2024-02-26T06:54:39;98475.31;;;9.10;95.09
62402;BME280;48440;51.224;22.506;2024-02-26T06:57:05;98483.16;;;9.12;95.16
62402;BME280;48440;51.224;22.506;2024-02-26T06:59:31;98486.94;;;9.11;94.27
62402;BME280;48440;51.224;22.506;2024-02-26T07:01:56;98482.09;;;9.08;94.77
62402;BME280;48440;51.224;22.506;2024-02-26T07:04:22;98482.06;;;9.03;95.65
62402;BME280;48440;51.224;22.506;2024-02-26T07:06:47;98484.22;;;9.01;95.48
62402;BME280;48440;51.224;22.506;2024-02-26T07:09:13;98487.97;;;8.95;96.01
62402;BME280;48440;51.224;22.506;2024-02-26T07:11:39;98490.41;;;8.96;95.75
62402;BME280;48440;51.224;22.506;2024-02-26T07:14:12;98488.47;;;8.87;96.91
62402;BME280;48440;51.224;22.506;2024-02-26T07:16:37;98486.00;;;8.85;96.96
62402;BME280;48440;51.224;22.506;2024-02-26T07:19:03;98496.31;;;8.83;96.83
62402;BME280;48440;51.224;22.506;2024-02-26T07:21:29;98489.88;;;8.94;96.94
62402;BME280;48440;51.224;22.506;2024-02-26T07:23:54;98486.06;;;8.95;96.80
62402;BME280;48440;51.224;22.506;2024-02-26T07:26:20;98486.69;;;9.07;96.20
62402;BME280;48440;51.224;22.506;2024-02-26T07:28:46;98491.84;;;9.19;95.89
62402;BME280;48440;51.224;22.506;2024-02-26T07:31:11;98490.00;;;9.25;94.62
62402;BME280;48440;51.224;22.506;2024-02-26T07:33:37;98496.78;;;9.27;94.85
62402;BME280;48440;51.224;22.506;2024-02-26T07:36:03;98494.66;;;9.44;94.54
62402;BME280;48440;51.224;22.506;2024-02-26T07:38:28;98485.19;;;9.47;93.69
62402;BME280;48440;51.224;22.506;2024-02-26T07:40:54;98491.69;;;9.46;93.77
62402;BME280;48440;51.224;22.506;2024-02-26T07:43:19;98497.91;;;9.46;94.29
62402;BME280;48440;51.224;22.506;2024-02-26T07:45:45;98498.44;;;9.43;94.07
62402;BME280;48440;51.224;22.506;2024-02-26T07:48:10;98496.53;;;9.44;93.92
62402;BME280;48440;51.224;22.506;2024-02-26T07:50:37;98501.97;;;9.44;94.42
62402;BME280;48440;51.224;22.506;2024-02-26T07:53:03;98500.34;;;9.48;94.55
62402;BME280;48440;51.224;22.506;2024-02-26T07:55:28;98494.41;;;9.51;94.45
62402;BME280;48440;51.224;22.506;2024-02-26T07:57:54;98486.84;;;9.58;94.11
62402;BME280;48440;51.224;22.506;2024-02-26T08:00:20;98489.84;;;9.77;94.00
62402;BME280;48440;51.224;22.506;2024-02-26T08:02:45;98489.06;;;9.86;93.55
62402;BME280;48440;51.224;22.506;2024-02-26T08:05:12;98491.22;;;9.90;93.18
62402;BME280;48440;51.224;22.506;2024-02-26T08:07:38;98498.53;;;9.99;92.69
62402;BME280;48440;51.224;22.506;2024-02-26T08:10:03;98492.59;;;10.02;92.45
62402;BME280;48440;51.224;22.506;2024-02-26T08:12:29;98504.25;;;10.03;92.02
62402;BME280;48440;51.224;22.506;2024-02-26T08:14:55;98500.72;;;9.97;92.79
62402;BME280;48440;51.224;22.506;2024-02-26T08:17:21;98513.44;;;9.81;93.00
62402;BME280;48440;51.224;22.506;2024-02-26T08:19:46;98507.47;;;9.74;93.18
62402;BME280;48440;51.224;22.506;2024-02-26T08:22:12;98498.53;;;9.79;93.58
62402;BME280;48440;51.224;22.506;2024-02-26T08:24:42;98503.16;;;9.83;92.67
62402;BME280;48440;51.224;22.506;2024-02-26T08:27:07;98508.03;;;9.81;93.15
62402;BME280;48440;51.224;22.506;2024-02-26T08:29:33;98512.88;;;9.79;92.98
62402;BME280;48440;51.224;22.506;2024-02-26T08:31:58;98506.94;;;9.82;93.33
62402;BME280;48440;51.224;22.506;2024-02-26T08:34:25;98512.34;;;9.82;92.72
62402;BME280;48440;51.224;22.506;2024-02-26T08:36:50;98518.06;;;9.86;92.80
62402;BME280;48440;51.224;22.506;2024-02-26T08:39:17;98504.75;;;9.90;92.95
62402;BME280;48440;51.224;22.506;2024-02-26T08:41:43;98509.91;;;9.91;92.94
62402;BME280;48440;51.224;22.506;2024-02-26T08:44:09;98518.84;;;9.92;92.06
62402;BME280;48440;51.224;22.506;2024-02-26T08:46:35;98506.41;;;9.85;92.59
62402;BME280;48440;51.224;22.506;2024-02-26T08:49:00;98505.84;;;9.88;92.52
62402;BME280;48440;51.224;22.506;2024-02-26T08:51:26;98503.44;;;10.02;92.87
62402;BME280;48440;51.224;22.506;2024-02-26T08:53:51;98495.31;;;10.28;92.53
62402;BME280;48440;51.224;22.506;2024-02-26T08:56:17;98499.31;;;10.86;89.58
62402;BME280;48440;51.224;22.506;2024-02-26T08:58:43;98498.25;;;11.46;86.97
62402;BME280;48440;51.224;22.506;2024-02-26T09:01:09;98503.22;;;11.83;83.01
62402;BME280;48440;51.224;22.506;2024-02-26T09:03:34;98503.31;;;11.63;83.35
62402;BME280;48440;51.224;22.506;2024-02-26T09:06:00;98503.88;;;11.60;83.93
62402;BME280;48440;51.224;22.506;2024-02-26T09:08:25;98507.06;;;12.16;81.98
62402;BME280;48440;51.224;22.506;2024-02-26T09:10:51;98498.88;;;13.03;77.63
62402;BME280;48440;51.224;22.506;2024-02-26T09:13:16;98502.34;;;13.09;76.46
62402;BME280;48440;51.224;22.506;2024-02-26T09:15:44;98501.88;;;13.02;75.42
62402;BME280;48440;51.224;22.506;2024-02-26T09:18:09;98510.84;;;12.49;76.81
62402;BME280;48440;51.224;22.506;2024-02-26T09:20:35;98506.72;;;12.57;76.56
62402;BME280;48440;51.224;22.506;2024-02-26T09:23:00;98510.00;;;12.54;76.84
62402;BME280;48440;51.224;22.506;2024-02-26T09:25:26;98506.47;;;12.82;74.88
62402;BME280;48440;51.224;22.506;2024-02-26T09:27:51;98498.53;;;12.86;75.65
62402;BME280;48440;51.224;22.506;2024-02-26T09:30:20;98507.75;;;13.14;72.40
62402;BME280;48440;51.224;22.506;2024-02-26T09:33:23;98500.09;;;12.39;76.37
62402;BME280;48440;51.224;22.506;2024-02-26T09:38:57;98505.41;;;12.20;78.13
62402;BME280;48440;51.224;22.506;2024-02-26T09:41:32;98494.38;;;12.02;77.72
62402;BME280;48440;51.224;22.506;2024-02-26T09:44:06;98496.94;;;11.88;78.08
62402;BME280;48440;51.224;22.506;2024-02-26T09:46:33;98500.88;;;11.67;79.63
62402;BME280;48440;51.224;22.506;2024-02-26T09:48:59;98509.09;;;11.51;80.38
62402;BME280;48440;51.224;22.506;2024-02-26T09:51:25;98502.84;;;11.51;81.13
62402;BME280;48440;51.224;22.506;2024-02-26T09:53:54;98515.34;;;11.52;81.67
62402;BME280;48440;51.224;22.506;2024-02-26T09:59:38;98515.97;;;11.34;81.59
62402;BME280;48440;51.224;22.506;2024-02-26T10:02:35;98512.16;;;11.40;81.38
62402;BME280;48440;51.224;22.506;2024-02-26T10:05:02;98509.44;;;11.35;81.24
62402;BME280;48440;51.224;22.506;2024-02-26T10:07:38;98522.19;;;11.39;81.40
62402;BME280;48440;51.224;22.506;2024-02-26T10:10:04;98519.22;;;11.36;81.42
62402;BME280;48440;51.224;22.506;2024-02-26T10:12:43;98518.41;;;11.35;81.49
62402;BME280;48440;51.224;22.506;2024-02-26T10:47:21;98505.94;;;12.80;76.13
62402;BME280;48440;51.224;22.506;2024-02-26T11:22:25;98490.84;;;12.93;74.50
62402;BME280;48440;51.224;22.506;2024-02-26T11:26:04;98493.09;;;12.86;74.95
62402;BME280;48440;51.224;22.506;2024-02-26T11:51:13;98506.75;;;12.81;72.70
62402;BME280;48440;51.224;22.506;2024-02-26T12:22:19;98502.16;;;12.76;69.18
62402;BME280;48440;51.224;22.506;2024-02-26T12:25:17;98498.56;;;12.81;69.18
62402;BME280;48440;51.224;22.506;2024-02-26T12:28:33;98498.53;;;12.86;68.88
62402;BME280;48440;51.224;22.506;2024-02-26T13:54:24;98543.53;;;13.31;66.47
62402;BME280;48440;51.224;22.506;2024-02-26T13:56:57;98542.66;;;13.36;65.99
62402;BME280;48440;51.224;22.506;2024-02-26T13:59:23;98546.78;;;13.33;66.61
62402;BME280;48440;51.224;22.506;2024-02-26T14:02:23;98541.63;;;13.32;66.24
62402;BME280;48440;51.224;22.506;2024-02-26T14:05:09;98541.63;;;13.32;66.37
62402;BME280;48440;51.224;22.506;2024-02-26T14:07:37;98538.88;;;13.32;66.16
62402;BME280;48440;51.224;22.506;2024-02-26T14:13:03;98545.63;;;13.39;65.75
62402;BME280;48440;51.224;22.506;2024-02-26T14:15:53;98551.38;;;13.38;65.98
62402;BME280;48440;51.224;22.506;2024-02-26T14:18:52;98549.69;;;13.42;65.50
62402;BME280;48440;51.224;22.506;2024-02-26T14:21:18;98542.09;;;13.39;65.51
62402;BME280;48440;51.224;22.506;2024-02-26T14:23:52;98551.31;;;13.43;65.67
62402;BME280;48440;51.224;22.506;2024-02-26T14:26:42;98554.91;;;13.38;66.05
62402;BME280;48440;51.224;22.506;2024-02-26T14:29:38;98559.53;;;13.38;66.14
62402;BME280;48440;51.224;22.506;2024-02-26T14:32:50;98552.97;;;13.39;65.99
62402;BME280;48440;51.224;22.506;2024-02-26T14:35:19;98551.88;;;13.40;66.26
62402;BME280;48440;51.224;22.506;2024-02-26T14:37:45;98548.69;;;13.33;65.38
62402;BME280;48440;51.224;22.506;2024-02-26T14:40:17;98546.19;;;13.36;65.77
62402;BME280;48440;51.224;22.506;2024-02-26T14:46:28;98545.16;;;13.32;65.28
62402;BME280;48440;51.224;22.506;2024-02-26T14:49:09;98546.25;;;13.31;65.83
62402;BME280;48440;51.224;22.506;2024-02-26T14:51:42;98550.94;;;13.25;65.61
62402;BME280;48440;51.224;22.506;2024-02-26T14:54:11;98539.59;;;13.18;66.03
62402;BME280;48440;51.224;22.506;2024-02-26T14:56:36;98544.75;;;13.20;66.27
62402;BME280;48440;51.224;22.506;2024-02-26T14:59:02;98540.72;;;13.17;66.35
62402;BME280;48440;51.224;22.506;2024-02-26T15:01:31;98542.91;;;13.15;66.61
62402;BME280;48440;51.224;22.506;2024-02-26T15:04:07;98540.44;;;13.14;66.96
62402;BME280;48440;51.224;22.506;2024-02-26T15:06:33;98537.47;;;13.10;67.17
62402;BME280;48440;51.224;22.506;2024-02-26T15:09:52;98540.78;;;13.07;67.56
62402;BME280;48440;51.224;22.506;2024-02-26T15:12:23;98544.06;;;13.04;68.09
62402;BME280;48440;51.224;22.506;2024-02-26T15:15:04;98547.38;;;13.01;68.09
62402;BME280;48440;51.224;22.506;2024-02-26T15:17:31;98546.34;;;12.97;68.44
62402;BME280;48440;51.224;22.506;2024-02-26T15:20:16;98542.28;;;12.95;68.68
62402;BME280;48440;51.224;22.506;2024-02-26T15:22:42;98540.41;;;12.90;69.50
62402;BME280;48440;51.224;22.506;2024-02-26T15:25:08;98544.25;;;12.89;69.43
62402;BME280;48440;51.224;22.506;2024-02-26T15:27:42;98541.28;;;12.85;69.74
62402;BME280;48440;51.224;22.506;2024-02-26T15:30:11;98548.41;;;12.81;70.17
62402;BME280;48440;51.224;22.506;2024-02-26T15:32:37;98556.03;;;12.79;70.42
62402;BME280;48440;51.224;22.506;2024-02-26T15:35:03;98555.22;;;12.79;70.38
62402;BME280;48440;51.224;22.506;2024-02-26T15:37:28;98553.88;;;12.76;70.77
62402;BME280;48440;51.224;22.506;2024-02-26T15:39:54;98556.88;;;12.75;70.69
62402;BME280;48440;51.224;22.506;2024-02-26T15:42:20;98561.53;;;12.74;70.92
62402;BME280;48440;51.224;22.506;2024-02-26T15:44:45;98565.66;;;12.72;71.17
62402;BME280;48440;51.224;22.506;2024-02-26T15:47:11;98567.03;;;12.69;71.56
62402;BME280;48440;51.224;22.506;2024-02-26T15:49:37;98565.41;;;12.68;71.82
62402;BME280;48440;51.224;22.506;2024-02-26T15:52:05;98569.22;;;12.67;72.38
62402;BME280;48440;51.224;22.506;2024-02-26T15:54:32;98567.59;;;12.66;73.10
62402;BME280;48440;51.224;22.506;2024-02-26T15:56:57;98565.16;;;12.65;73.50
62402;BME280;48440;51.224;22.506;2024-02-26T15:59:23;98563.00;;;12.62;75.07
62402;BME280;48440;51.224;22.506;2024-02-26T16:01:52;98561.38;;;12.61;76.17
62402;BME280;48440;51.224;22.506;2024-02-26T16:04:18;98555.69;;;12.57;77.13
62402;BME280;48440;51.224;22.506;2024-02-26T16:06:47;98562.53;;;12.54;77.92
62402;BME280;48440;51.224;22.506;2024-02-26T16:09:13;98563.63;;;12.53;78.81
62402;BME280;48440;51.224;22.506;2024-02-26T16:11:39;98573.16;;;12.51;79.33
62402;BME280;48440;51.224;22.506;2024-02-26T16:17:01;98583.00;;;12.47;80.67
62402;BME280;48440;51.224;22.506;2024-02-26T16:19:28;98577.03;;;12.45;81.55
62402;BME280;48440;51.224;22.506;2024-02-26T16:21:54;98584.38;;;12.44;81.77
62402;BME280;48440;51.224;22.506;2024-02-26T16:24:19;98587.41;;;12.43;82.32
62402;BME280;48440;51.224;22.506;2024-02-26T16:26:45;98587.41;;;12.43;82.27
62402;BME280;48440;51.224;22.506;2024-02-26T16:29:10;98601.28;;;12.41;82.87
62402;BME280;48440;51.224;22.506;2024-02-26T16:31:45;98601.56;;;12.40;82.59
62402;BME280;48440;51.224;22.506;2024-02-26T16:34:11;98607.00;;;12.40;83.06
62402;BME280;48440;51.224;22.506;2024-02-26T16:36:36;98604.03;;;12.36;83.10